Time;durP1;ratioP1;P1;durP2;ratioP2;P2;SDS_P1;SDS_P2;PMS_P1;PMS_P2;Temp;Humidity;BMP_temperature;BMP_pressure;BME280_temperature;BME280_humidity;BME280_pressure;Samples;Min_cycle;Max_cycle;Signal;HPM_P1;HPM_P2
2021/01/07 00:02:09;;;;;;;3.38;0.40;;;;;;;1.96;89.49;101553.53;5050740;28;20080;-54
2021/01/07 00:04:36;;;;;;;1.35;0.30;;;;;;;1.97;89.49;101546.97;5050793;28;20518;-52
2021/01/07 00:07:03;;;;;;;1.52;0.40;;;;;;;1.98;89.79;101548.66;5051018;28;20053;-53
2021/01/07 00:09:30;;;;;;;2.17;0.57;;;;;;;1.98;89.81;101541.25;5050266;28;20083;-54
2021/01/07 00:11:56;;;;;;;1.48;0.40;;;;;;;1.97;89.57;101544.22;5047162;28;20053;-53
2021/01/07 00:14:24;;;;;;;1.27;0.50;;;;;;;1.97;89.44;101542.31;5050079;28;20055;-51
2021/01/07 00:16:51;;;;;;;1.08;0.30;;;;;;;1.95;89.84;101541.69;5049990;28;20052;-56
2021/01/07 00:19:18;;;;;;;1.13;0.40;;;;;;;1.95;89.92;101541.69;5051049;28;20476;-53
2021/01/07 00:21:45;;;;;;;1.98;0.40;;;;;;;1.95;89.70;101533.44;5050410;28;20551;-55
2021/01/07 00:24:11;;;;;;;1.60;0.45;;;;;;;1.96;89.60;101537.03;5050381;28;20059;-58
2021/01/07 00:26:38;;;;;;;4.25;0.50;;;;;;;1.96;89.62;101528.75;5050365;28;20052;-57
2021/01/07 00:29:06;;;;;;;0.90;0.30;;;;;;;1.96;89.88;101529.59;5050749;28;20124;-57
2021/01/07 00:31:33;;;;;;;0.70;0.30;;;;;;;1.97;89.85;101536.78;5049882;28;20049;-54
2021/01/07 00:34:00;;;;;;;1.23;0.40;;;;;;;1.98;89.88;101532.13;5050832;28;20072;-54
2021/01/07 00:36:27;;;;;;;1.58;0.40;;;;;;;1.98;89.86;101530.22;5050374;28;20181;-56
2021/01/07 00:38:54;;;;;;;4.07;0.40;;;;;;;1.97;89.80;101534.03;5050058;28;20132;-53
2021/01/07 00:41:21;;;;;;;1.20;0.30;;;;;;;1.99;89.94;101533.81;5050166;28;20060;-52
2021/01/07 00:43:49;;;;;;;0.85;0.30;;;;;;;2.00;89.82;101536.31;5050657;28;20048;-52
2021/01/07 00:46:16;;;;;;;1.13;0.47;;;;;;;1.99;89.86;101526.41;5049749;28;20132;-53
2021/01/07 00:48:46;;;;;;;2.63;0.38;;;;;;;2.00;90.11;101529.97;5050503;28;20059;-53
2021/01/07 00:51:13;;;;;;;1.20;0.20;;;;;;;2.00;90.23;101529.97;5048578;28;20049;-53
2021/01/07 00:53:41;;;;;;;0.90;0.28;;;;;;;1.97;89.90;101520.28;5048861;28;20086;-52
2021/01/07 00:56:14;;;;;;;0.98;0.30;;;;;;;1.94;90.07;101519.88;5048889;28;20049;-52
2021/01/07 00:58:43;;;;;;;1.40;0.32;;;;;;;1.93;89.77;101516.28;5048476;28;20492;-54
2021/01/07 01:01:10;;;;;;;1.58;0.30;;;;;;;1.94;90.14;101528.16;5048994;28;20144;-52
2021/01/07 01:03:37;;;;;;;0.80;0.20;;;;;;;1.91;90.35;101514.84;5049811;28;20118;-51
2021/01/07 01:06:05;;;;;;;1.45;0.38;;;;;;;1.90;90.39;101511.25;5049759;28;20153;-53
2021/01/07 01:08:31;;;;;;;1.05;0.30;;;;;;;1.90;89.92;101515.91;5049587;28;20140;-52
2021/01/07 01:10:59;;;;;;;1.27;0.20;;;;;;;1.87;90.02;101511.69;5050205;28;20522;-52
2021/01/07 01:13:26;;;;;;;1.23;0.20;;;;;;;1.87;90.18;101508.94;5049444;28;20510;-53
2021/01/07 01:15:54;;;;;;;0.68;0.20;;;;;;;1.84;90.17;101497.53;5050280;28;20051;-52
2021/01/07 01:18:21;;;;;;;2.38;0.30;;;;;;;1.84;89.94;101495.63;5049743;28;20045;-51
2021/01/07 01:20:47;;;;;;;0.38;0.20;;;;;;;1.83;90.42;101495.84;5049470;28;20059;-55
2021/01/07 01:23:15;;;;;;;1.98;0.22;;;;;;;1.83;90.08;101495.84;5049498;28;20354;-56
2021/01/07 01:25:42;;;;;;;0.95;0.50;;;;;;;1.83;90.24;101490.34;5052580;28;20461;-54
2021/01/07 01:28:09;;;;;;;1.38;0.40;;;;;;;1.82;90.11;101497.75;5053178;28;20041;-58
2021/01/07 01:30:35;;;;;;;1.55;0.28;;;;;;;1.81;90.54;101481.47;5053981;28;20136;-52
2021/01/07 01:33:02;;;;;;;1.42;0.30;;;;;;;1.80;90.38;101490.81;5053634;28;20380;-57
2021/01/07 01:35:29;;;;;;;1.17;0.20;;;;;;;1.80;90.47;101490.81;5053266;28;20049;-56
2021/01/07 01:37:56;;;;;;;1.13;0.28;;;;;;;1.78;90.56;101491.03;5053392;28;20051;-54
2021/01/07 01:40:23;;;;;;;1.02;0.20;;;;;;;1.77;90.20;101483.84;5053286;28;20048;-57
2021/01/07 01:42:50;;;;;;;0.55;0.20;;;;;;;1.76;90.42;101487.69;5053540;28;20114;-54
2021/01/07 01:45:17;;;;;;;0.90;0.20;;;;;;;1.76;90.71;101487.69;5053555;28;20041;-57
2021/01/07 01:47:44;;;;;;;0.52;0.20;;;;;;;1.76;90.68;101476.66;5052893;28;20053;-58
2021/01/07 01:50:12;;;;;;;0.40;0.15;;;;;;;1.76;90.48;101484.06;5053255;28;20048;-58
2021/01/07 01:52:39;;;;;;;0.88;0.20;;;;;;;1.77;90.40;101483.00;5053732;28;20053;-57
2021/01/07 01:55:07;;;;;;;1.52;0.30;;;;;;;1.78;90.60;101490.19;5052568;28;20084;-57
2021/01/07 01:57:35;;;;;;;1.02;0.20;;;;;;;1.80;90.65;101490.81;5053692;28;20052;-59
2021/01/07 02:00:03;;;;;;;1.65;0.13;;;;;;;1.80;90.55;101480.63;5052883;28;20132;-59
2021/01/07 02:02:31;;;;;;;1.65;0.40;;;;;;;1.82;90.75;101488.66;5052824;28;20103;-56
2021/01/07 02:04:57;;;;;;;0.68;0.30;;;;;;;1.85;90.56;101490.97;5051657;28;20140;-52
2021/01/07 02:07:26;;;;;;;2.35;0.43;;;;;;;1.85;90.83;101490.97;5053354;28;20488;-52
2021/01/07 02:09:52;;;;;;;0.57;0.20;;;;;;;1.85;90.62;101485.47;5052386;28;20555;-51
2021/01/07 02:12:19;;;;;;;0.70;0.20;;;;;;;1.84;90.53;101483.78;5053341;28;20127;-51
2021/01/07 02:14:47;;;;;;;2.65;0.40;;;;;;;1.83;90.82;101484.84;5052711;28;20857;-53
2021/01/07 02:17:15;;;;;;;2.20;0.30;;;;;;;1.83;90.42;101479.34;5052525;28;20135;-52
2021/01/07 02:19:42;;;;;;;2.47;0.40;;;;;;;1.84;90.48;101481.03;5052659;28;20126;-53
2021/01/07 02:22:13;;;;;;;0.50;0.20;;;;;;;1.84;90.81;101481.88;5052794;28;20431;-51
2021/01/07 02:24:40;;;;;;;1.38;0.20;;;;;;;1.84;90.74;101475.50;5051918;28;20524;-53
2021/01/07 02:27:09;;;;;;;0.82;0.20;;;;;;;1.86;90.65;101470.63;5052922;28;20045;-52
2021/01/07 02:29:38;;;;;;;1.17;0.30;;;;;;;1.86;90.77;101468.72;5051874;28;20064;-52
2021/01/07 02:32:05;;;;;;;1.00;0.30;;;;;;;1.87;90.73;101466.81;5052595;28;20479;-50
2021/01/07 02:34:32;;;;;;;2.55;0.32;;;;;;;1.86;90.62;101457.72;5052477;28;20047;-52
2021/01/07 02:36:59;;;;;;;0.90;0.30;;;;;;;1.85;90.57;101452.44;5051501;28;20349;-51
2021/01/07 02:39:26;;;;;;;1.38;0.25;;;;;;;1.85;90.87;101446.94;5052473;28;20136;-53
2021/01/07 02:41:54;;;;;;;2.50;0.22;;;;;;;1.83;90.59;101452.66;5052478;28;20080;-52
2021/01/07 02:44:22;;;;;;;2.25;0.20;;;;;;;1.83;90.60;101449.91;5052170;28;20167;-52
2021/01/07 02:46:49;;;;;;;2.10;0.30;;;;;;;1.84;90.65;101448.00;5052123;28;20124;-51
2021/01/07 02:49:17;;;;;;;0.95;0.20;;;;;;;1.84;90.56;101445.25;5052487;28;20045;-56
2021/01/07 02:51:44;;;;;;;0.85;0.22;;;;;;;1.86;90.92;101448.63;5051613;28;20163;-51
2021/01/07 02:54:11;;;;;;;0.70;0.20;;;;;;;1.88;91.18;101450.06;5052269;28;20053;-51
2021/01/07 02:56:39;;;;;;;3.17;0.20;;;;;;;1.91;90.92;101452.38;5052136;28;20119;-50
2021/01/07 02:59:05;;;;;;;1.10;0.20;;;;;;;1.93;91.34;101442.00;5051802;28;20547;-50
2021/01/07 03:01:32;;;;;;;1.42;0.20;;;;;;;1.95;91.17;101445.34;5051981;28;20037;-54
2021/01/07 03:03:59;;;;;;;0.30;0.15;;;;;;;1.98;91.00;101438.56;5052182;28;20084;-50
2021/01/07 03:06:26;;;;;;;4.05;0.60;;;;;;;2.02;90.82;101439.75;5051455;28;20067;-50
2021/01/07 03:08:53;;;;;;;0.35;0.13;;;;;;;2.03;90.99;101434.03;5052098;28;20131;-51
2021/01/07 03:11:20;;;;;;;0.60;0.10;;;;;;;2.06;91.09;101436.31;5051652;28;20139;-51
2021/01/07 03:13:48;;;;;;;0.73;0.20;;;;;;;2.07;91.24;101432.50;5051400;28;20123;-53
2021/01/07 03:16:15;;;;;;;2.78;0.30;;;;;;;2.09;91.03;101432.28;5051801;28;20040;-54
2021/01/07 03:18:42;;;;;;;1.85;0.30;;;;;;;2.10;90.83;101438.63;5052052;28;20041;-53
2021/01/07 03:21:08;;;;;;;3.15;0.30;;;;;;;2.11;90.99;101441.16;5051277;28;20048;-52
2021/01/07 03:23:35;;;;;;;1.25;0.35;;;;;;;2.12;91.33;101433.75;5051606;28;20498;-50
2021/01/07 03:26:02;;;;;;;2.10;0.40;;;;;;;2.12;91.17;101434.56;5050961;28;20411;-52
2021/01/07 03:28:29;;;;;;;1.55;0.43;;;;;;;2.13;91.16;101432.66;5051598;28;20550;-53
2021/01/07 03:30:57;;;;;;;2.83;0.20;;;;;;;2.14;91.48;101426.09;5051956;28;20500;-52
2021/01/07 03:33:23;;;;;;;0.95;0.30;;;;;;;2.15;91.35;101427.78;5050465;28;20499;-52
2021/01/07 03:35:50;;;;;;;3.42;0.30;;;;;;;2.16;91.52;101433.06;5051382;28;20052;-51
2021/01/07 03:38:17;;;;;;;0.50;0.20;;;;;;;2.17;91.24;101425.63;5051068;28;20053;-49
2021/01/07 03:40:44;;;;;;;0.65;0.20;;;;;;;2.18;91.20;101428.16;5050971;28;20560;-54
2021/01/07 03:43:11;;;;;;;0.77;0.20;;;;;;;2.18;91.25;101422.66;5051144;28;20049;-54
2021/01/07 03:45:38;;;;;;;0.85;0.30;;;;;;;2.19;91.09;101418.84;5051238;28;20079;-51
2021/01/07 03:48:06;;;;;;;0.47;0.15;;;;;;;2.20;91.30;101426.00;5050470;28;20041;-49
2021/01/07 03:50:33;;;;;;;0.57;0.20;;;;;;;2.21;91.39;101426.84;5051409;28;20155;-51
2021/01/07 03:53:00;;;;;;;0.55;0.20;;;;;;;2.20;91.35;101426.00;5050792;28;20484;-54
2021/01/07 03:55:26;;;;;;;1.67;0.40;;;;;;;2.19;91.54;101418.84;5050769;28;20423;-51
2021/01/07 03:57:53;;;;;;;0.50;0.20;;;;;;;2.19;91.37;101413.31;5050919;28;20052;-53
2021/01/07 04:00:21;;;;;;;1.35;0.20;;;;;;;2.20;91.23;101423.25;5051075;28;20120;-57
2021/01/07 04:02:48;;;;;;;1.13;0.28;;;;;;;2.20;91.64;101423.25;5050609;28;20571;-52
2021/01/07 04:05:15;;;;;;;3.97;0.40;;;;;;;2.22;91.59;101423.00;5051916;28;20041;-53
2021/01/07 04:07:42;;;;;;;2.78;0.40;;;;;;;2.21;91.55;101424.09;5051352;28;20052;-54
2021/01/07 04:10:09;;;;;;;1.25;0.40;;;;;;;2.22;91.58;101412.84;5051374;28;20063;-52
2021/01/07 04:12:36;;;;;;;2.85;0.40;;;;;;;2.22;91.78;101417.50;5051864;28;20045;-52
2021/01/07 04:15:06;;;;;;;2.38;0.30;;;;;;;2.23;91.79;101411.78;5051302;28;20041;-49
2021/01/07 04:17:33;;;;;;;1.20;0.17;;;;;;;2.25;91.62;101417.91;5051989;28;20045;-51
2021/01/07 04:19:59;;;;;;;2.10;0.30;;;;;;;2.26;91.76;101415.97;5051286;28;20052;-50
2021/01/07 04:22:27;;;;;;;1.80;0.30;;;;;;;2.26;91.91;101419.56;5051292;28;20033;-53
2021/01/07 04:24:54;;;;;;;1.02;0.20;;;;;;;2.26;91.57;101418.72;5051197;28;20044;-49
2021/01/07 04:27:20;;;;;;;1.42;0.28;;;;;;;2.27;91.91;101421.25;5052075;28;20084;-53
2021/01/07 04:29:47;;;;;;;2.08;0.20;;;;;;;2.25;91.32;101409.63;5050782;28;20055;-52
2021/01/07 04:32:14;;;;;;;0.88;0.20;;;;;;;2.24;91.72;101413.44;5051669;28;20076;-52
2021/01/07 04:34:41;;;;;;;0.65;0.10;;;;;;;2.23;91.64;101409.03;5051104;28;20055;-53
2021/01/07 04:37:07;;;;;;;0.40;0.10;;;;;;;2.22;91.69;101412.84;5051304;28;20048;-52
2021/01/07 04:39:35;;;;;;;1.20;0.20;;;;;;;2.22;91.80;101400.97;5050936;28;20551;-54
2021/01/07 04:42:02;;;;;;;0.63;0.10;;;;;;;2.23;91.83;101403.50;5051550;28;20514;-52
2021/01/07 04:44:29;;;;;;;1.92;0.20;;;;;;;2.23;91.79;101395.25;5050864;28;20475;-51
2021/01/07 04:46:59;;;;;;;0.80;0.20;;;;;;;2.25;91.63;101403.28;5051469;28;20096;-54
2021/01/07 04:49:26;;;;;;;0.77;0.20;;;;;;;2.25;91.88;101404.13;5051098;28;20495;-54
2021/01/07 04:51:52;;;;;;;1.90;0.20;;;;;;;2.25;91.81;101398.63;5051082;28;20411;-49
2021/01/07 04:54:20;;;;;;;1.88;0.20;;;;;;;2.26;91.87;101397.53;5050959;28;20061;-52
2021/01/07 04:56:47;;;;;;;1.45;0.30;;;;;;;2.28;91.67;101403.66;5051301;28;20076;-54
2021/01/07 04:59:15;;;;;;;3.10;0.30;;;;;;;2.29;92.17;101394.34;5050501;28;20053;-49
2021/01/07 05:01:42;;;;;;;3.40;0.43;;;;;;;2.30;92.18;101397.94;5054790;28;20144;-53
2021/01/07 05:04:09;;;;;;;2.80;0.20;;;;;;;2.32;92.08;101393.88;5055045;28;20041;-50
2021/01/07 05:06:37;;;;;;;2.25;0.20;;;;;;;2.32;92.12;101393.88;5053792;28;20472;-56
2021/01/07 05:09:06;;;;;;;3.50;0.30;;;;;;;2.35;92.12;101384.31;5055853;28;20045;-55
2021/01/07 05:11:34;;;;;;;1.95;0.20;;;;;;;2.37;91.97;101390.44;5054208;28;20135;-53
2021/01/07 05:14:04;;;;;;;1.42;0.20;;;;;;;2.39;91.95;101396.56;5055103;28;20513;-56
2021/01/07 05:16:31;;;;;;;2.40;0.30;;;;;;;2.38;92.21;101384.69;5054514;28;20088;-53
2021/01/07 05:19:02;;;;;;;1.35;0.20;;;;;;;2.40;92.21;101385.28;5054866;28;20136;-54
2021/01/07 05:21:29;;;;;;;2.63;0.47;;;;;;;2.42;92.41;101385.03;5054779;28;20037;-52
2021/01/07 05:23:58;;;;;;;1.77;0.30;;;;;;;2.42;92.27;101390.56;5055251;28;20052;-52
2021/01/07 05:26:26;;;;;;;2.72;0.47;;;;;;;2.41;92.17;101384.22;5054127;28;20080;-55
2021/01/07 05:28:54;;;;;;;3.22;0.35;;;;;;;2.39;92.25;101382.78;5054895;28;20077;-53
2021/01/07 05:31:24;;;;;;;2.17;0.50;;;;;;;2.37;92.04;101379.41;5054317;28;20481;-54
2021/01/07 05:33:52;;;;;;;2.47;0.40;;;;;;;2.36;92.01;101374.97;5054252;28;20423;-53
2021/01/07 05:36:24;;;;;;;1.35;0.60;;;;;;;2.35;92.07;101376.06;5054524;28;20128;-54
2021/01/07 05:38:52;;;;;;;1.77;0.40;;;;;;;2.32;91.93;101371.84;5054727;28;20049;-54
2021/01/07 05:41:19;;;;;;;2.65;0.30;;;;;;;2.32;92.15;101368.25;5053608;28;20052;-54
2021/01/07 05:43:58;;;;;;;2.97;1.20;;;;;;;2.32;92.00;101366.34;5054834;28;20045;-52
2021/01/07 05:46:26;;;;;;;2.85;0.98;;;;;;;2.31;92.33;101372.91;5053774;28;20492;-55
2021/01/07 05:48:54;;;;;;;2.97;0.60;;;;;;;2.32;92.30;101369.09;5054542;28;20053;-56
2021/01/07 05:51:24;;;;;;;1.88;0.45;;;;;;;2.34;92.55;101368.88;5052958;28;20411;-51
2021/01/07 05:53:52;;;;;;;0.63;0.20;;;;;;;2.34;92.31;101369.69;5054247;28;20143;-57
2021/01/07 05:56:20;;;;;;;2.25;0.40;;;;;;;2.35;92.47;101365.88;5014677;28;20432;-54
2021/01/07 05:58:48;;;;;;;0.38;0.10;;;;;;;2.35;92.34;101365.88;5012511;28;20473;-55
2021/01/07 06:01:16;;;;;;;1.15;0.22;;;;;;;2.36;92.22;101374.97;5012983;28;20480;-55
2021/01/07 06:03:47;;;;;;;0.63;0.20;;;;;;;2.38;92.33;101370.09;5013802;28;20050;-55
2021/01/07 06:06:16;;;;;;;0.40;0.10;;;;;;;2.39;92.40;101375.38;5013640;28;20053;-54
2021/01/07 06:08:51;;;;;;;0.60;0.20;;;;;;;2.41;92.18;101372.34;5011986;28;20127;-52
2021/01/07 06:11:19;;;;;;;2.70;0.68;;;;;;;2.41;92.41;101375.94;5012953;28;20589;-55
2021/01/07 06:13:49;;;;;;;2.08;0.30;;;;;;;2.43;92.21;101373.81;5013291;28;20049;-51
2021/01/07 06:16:18;;;;;;;0.82;0.20;;;;;;;2.43;92.29;101373.81;5013196;28;20518;-54
2021/01/07 06:18:46;;;;;;;0.47;0.20;;;;;;;2.45;92.37;101369.97;5012924;28;20046;-53
2021/01/07 06:21:14;;;;;;;0.98;0.20;;;;;;;2.45;92.08;101367.22;5013458;28;20404;-55
2021/01/07 06:23:42;;;;;;;1.00;0.30;;;;;;;2.46;92.46;101369.75;5009707;28;20052;-54
2021/01/07 06:26:20;;;;;;;0.90;0.17;;;;;;;2.46;92.37;101367.00;4993686;28;20054;-54
2021/01/07 06:28:50;;;;;;;1.25;0.20;;;;;;;2.47;92.20;101370.59;5008525;28;20603;-54
2021/01/07 06:31:17;;;;;;;1.30;0.20;;;;;;;2.47;92.38;101365.06;5013182;28;20509;-56
2021/01/07 06:33:44;;;;;;;0.85;0.20;;;;;;;2.48;92.51;101364.00;5012421;28;20060;-55
2021/01/07 06:36:12;;;;;;;0.70;0.20;;;;;;;2.49;92.34;101362.94;5012602;28;20053;-51
2021/01/07 06:38:50;;;;;;;0.60;0.20;;;;;;;2.49;92.42;101377.53;5012461;28;20046;-53
2021/01/07 06:41:19;;;;;;;2.15;0.40;;;;;;;2.48;92.62;101373.09;5013137;28;20042;-55
2021/01/07 06:43:48;;;;;;;0.50;0.10;;;;;;;2.49;92.39;101373.94;5012595;28;20408;-55
2021/01/07 06:46:42;;;;;;;2.30;0.22;;;;;;;2.50;92.41;101370.13;5012823;28;20153;-54
2021/01/07 06:49:20;;;;;;;3.03;0.20;;;;;;;2.49;92.69;101366.53;5012587;28;20085;-53
2021/01/07 06:51:52;;;;;;;4.53;0.88;;;;;;;2.48;92.86;101377.78;5012315;28;20046;-54
2021/01/07 06:54:19;;;;;;;1.92;0.32;;;;;;;2.47;92.55;101374.19;5019139;28;20471;-52
2021/01/07 06:56:47;;;;;;;3.20;0.30;;;;;;;2.45;92.71;101378.25;5051953;28;20496;-54
2021/01/07 06:59:15;;;;;;;2.38;0.30;;;;;;;2.37;92.74;101371.16;5052287;28;20037;-51
2021/01/07 07:01:51;;;;;;;2.42;0.20;;;;;;;2.33;92.69;101367.19;5052285;28;20304;-50
2021/01/07 07:04:28;;;;;;;1.25;0.20;;;;;;;2.28;92.68;101367.88;5051522;28;20187;-53
2021/01/07 07:07:01;;;;;;;3.47;0.30;;;;;;;2.24;92.62;101363.91;5052034;28;20049;-54
2021/01/07 07:09:32;;;;;;;;;;;;;;;2.16;92.68;101361.47;5052262;28;20081;-52
2021/01/07 07:11:58;;;;;;;0.77;0.20;;;;;;;2.15;92.85;101361.72;5051920;28;20007;-54
2021/01/07 07:14:30;;;;;;;1.05;0.20;;;;;;;2.18;92.65;101356.59;5051618;28;20468;-52
2021/01/07 07:16:57;;;;;;;4.75;0.32;;;;;;;2.20;92.93;101359.91;5052187;28;20435;-55
2021/01/07 07:19:25;;;;;;;3.75;0.30;;;;;;;2.23;92.70;101364.97;5050975;28;20047;-51
2021/01/07 07:21:56;;;;;;;3.80;0.47;;;;;;;2.26;92.84;101364.50;5052266;28;20132;-55
2021/01/07 07:24:35;;;;;;;7.07;0.65;;;;;;;2.33;93.31;101367.19;5051099;28;20045;-53
2021/01/07 07:27:11;;;;;;;7.47;0.60;;;;;;;2.36;93.20;101364.81;5051294;28;20136;-51
2021/01/07 07:29:39;;;;;;;3.88;0.57;;;;;;;2.40;93.17;101371.50;5051495;28;20052;-51
2021/01/07 07:32:26;;;;;;;7.50;1.00;;;;;;;2.43;93.27;101378.47;5051164;28;20096;-55
2021/01/07 07:34:54;;;;;;;6.03;0.80;;;;;;;2.41;93.22;101378.69;5051547;28;20099;-50
2021/01/07 07:37:22;;;;;;;4.45;0.60;;;;;;;2.42;93.16;101380.38;5051464;28;20053;-52
2021/01/07 07:39:59;;;;;;;5.53;0.88;;;;;;;2.43;93.07;101382.06;5050627;28;20053;-51
2021/01/07 07:42:28;;;;;;;9.15;0.60;;;;;;;2.42;93.00;101380.38;5050289;28;20051;-50
2021/01/07 07:44:57;;;;;;;5.40;0.80;;;;;;;2.43;93.33;101382.06;5051554;28;20047;-51
2021/01/07 07:47:24;;;;;;;5.75;0.68;;;;;;;2.41;93.11;101384.22;5050971;28;20048;-50
2021/01/07 07:49:54;;;;;;;6.90;1.05;;;;;;;2.42;93.25;101391.41;5050122;28;20131;-50
2021/01/07 07:52:21;;;;;;;8.05;1.02;;;;;;;2.43;93.09;101397.75;5051404;28;20136;-55
2021/01/07 07:55:01;;;;;;;6.63;0.82;;;;;;;2.42;93.10;101387.81;5050393;28;20467;-48
2021/01/07 07:57:28;;;;;;;3.92;0.60;;;;;;;2.40;92.94;101382.53;5047892;28;20095;-51
2021/01/07 08:00:11;;;;;;;7.47;0.80;;;;;;;2.44;92.97;101388.41;5051332;28;20051;-55
2021/01/07 08:02:38;;;;;;;6.53;1.02;;;;;;;2.42;93.11;101380.38;5047909;28;20052;-51
2021/01/07 08:05:06;;;;;;;4.43;0.70;;;;;;;2.47;93.32;101381.59;5050777;28;20045;-52
2021/01/07 08:07:33;;;;;;;6.88;1.00;;;;;;;2.50;93.12;101392.16;5049699;28;20045;-53
2021/01/07 08:10:06;;;;;;;8.90;0.95;;;;;;;2.54;93.35;101390.63;5050680;28;20084;-53
2021/01/07 08:12:35;;;;;;;5.72;1.10;;;;;;;2.56;93.26;101394.84;5050469;28;20456;-56
2021/01/07 08:15:01;;;;;;;4.28;0.68;;;;;;;2.59;93.30;101388.03;5050142;28;20059;-53
2021/01/07 08:17:28;;;;;;;5.38;1.30;;;;;;;2.61;93.13;101388.59;5049591;28;20053;-53
2021/01/07 08:19:55;;;;;;;4.90;0.80;;;;;;;2.64;93.33;101388.13;5030664;28;20045;-54
2021/01/07 08:22:27;;;;;;;7.78;1.20;;;;;;;2.68;93.26;101389.34;5044133;28;20477;-51
2021/01/07 08:24:56;;;;;;;6.97;0.90;;;;;;;2.67;93.31;101393.19;5050791;28;20077;-50
2021/01/07 08:27:28;;;;;;;7.85;1.13;;;;;;;2.69;93.05;101391.88;5050155;28;20407;-54
2021/01/07 08:29:58;;;;;;;5.90;1.00;;;;;;;2.71;93.15;101394.41;5050313;28;20049;-54
2021/01/07 08:32:34;;;;;;;8.55;1.00;;;;;;;2.72;92.83;101393.31;5050109;28;20803;-54
2021/01/07 08:35:07;;;;;;;6.43;0.85;;;;;;;2.72;92.85;101396.09;5050246;28;20053;-56
2021/01/07 08:37:34;;;;;;;7.90;1.00;;;;;;;2.72;92.95;101391.41;5049685;28;20416;-55
2021/01/07 08:40:05;;;;;;;7.18;0.98;;;;;;;2.74;93.13;101393.94;5050509;28;20509;-57
2021/01/07 08:42:35;;;;;;;4.32;0.80;;;;;;;2.75;92.95;101396.47;5049462;28;20131;-54
2021/01/07 08:45:04;;;;;;;7.32;0.75;;;;;;;2.78;92.88;101397.06;5050299;28;20057;-54
2021/01/07 08:47:31;;;;;;;5.32;0.90;;;;;;;2.81;93.00;101393.81;5050361;28;20052;-54
2021/01/07 08:50:05;;;;;;;4.22;0.75;;;;;;;2.84;92.84;101394.19;5050037;28;20103;-55
2021/01/07 08:52:47;;;;;;;5.82;1.13;;;;;;;2.87;92.69;101396.47;5050133;28;20045;-52
2021/01/07 08:55:14;;;;;;;6.38;1.17;;;;;;;2.91;92.95;101385.84;5050649;28;20084;-56
2021/01/07 08:57:42;;;;;;;3.63;0.75;;;;;;;2.93;92.80;101390.03;5049495;28;20048;-54
2021/01/07 09:00:15;;;;;;;10.80;1.05;;;;;;;2.97;92.78;101396.78;5050235;28;20045;-55
2021/01/07 09:02:42;;;;;;;7.25;1.42;;;;;;;2.99;92.76;101389.09;5049994;28;20049;-56
2021/01/07 09:05:09;;;;;;;9.13;1.20;;;;;;;3.03;92.59;101390.28;5049435;28;20049;-56
2021/01/07 09:07:36;;;;;;;8.55;1.55;;;;;;;3.05;92.75;101388.13;5049930;28;20075;-56
2021/01/07 09:10:04;;;;;;;6.75;0.90;;;;;;;3.09;92.71;101391.25;5049801;28;20072;-55
2021/01/07 09:12:33;;;;;;;6.25;1.00;;;;;;;3.07;92.47;101388.75;5049637;28;20056;-56
2021/01/07 09:15:05;;;;;;;7.60;1.10;;;;;;;3.07;92.34;101388.75;5050075;28;20468;-56
2021/01/07 09:17:40;;;;;;;8.18;1.00;;;;;;;3.07;92.18;101386.00;5050038;28;20115;-57
2021/01/07 09:20:08;;;;;;;4.50;0.75;;;;;;;3.04;92.25;101386.44;5049842;28;20080;-52
2021/01/07 09:22:35;;;;;;;2.95;0.60;;;;;;;3.08;92.12;101390.44;5049885;28;20562;-55
2021/01/07 09:25:03;;;;;;;7.32;1.00;;;;;;;3.10;92.17;101393.78;5048996;28;20053;-56
2021/01/07 09:27:30;;;;;;;5.47;0.77;;;;;;;3.16;92.16;101393.94;5050093;28;20077;-56
2021/01/07 09:29:57;;;;;;;4.85;0.98;;;;;;;3.18;92.11;101389.84;5049559;28;20092;-56
2021/01/07 09:32:25;;;;;;;6.18;0.80;;;;;;;3.21;91.97;101388.50;5049365;28;20053;-55
2021/01/07 09:34:52;;;;;;;10.93;1.02;;;;;;;3.24;91.94;101393.56;5049307;28;20061;-58
2021/01/07 09:37:20;;;;;;;6.55;1.00;;;;;;;3.26;91.94;101391.41;5049683;28;20523;-58
2021/01/07 09:39:49;;;;;;;5.68;0.80;;;;;;;3.29;91.78;101393.69;5048987;28;20048;-59
2021/01/07 09:42:18;;;;;;;7.65;1.40;;;;;;;3.32;91.87;101395.97;5049875;28;20049;-58
2021/01/07 09:44:46;;;;;;;4.93;0.90;;;;;;;3.34;91.75;101393.81;5049377;28;20135;-60
2021/01/07 09:47:13;;;;;;;8.82;1.10;;;;;;;3.34;91.76;101399.34;5052215;28;20400;-59
2021/01/07 09:49:40;;;;;;;5.32;0.98;;;;;;;3.33;91.64;101400.41;5051951;28;20049;-57
2021/01/07 09:52:07;;;;;;;6.07;1.10;;;;;;;3.36;91.79;101403.53;5053444;28;20072;-59
2021/01/07 09:54:35;;;;;;;6.10;0.82;;;;;;;3.37;91.74;101398.88;5052470;28;20072;-58
2021/01/07 09:57:02;;;;;;;6.20;0.88;;;;;;;3.39;91.91;101394.81;5053408;28;20040;-59
2021/01/07 09:59:30;;;;;;;6.70;0.73;;;;;;;3.40;91.76;101399.22;5052989;28;20361;-60
2021/01/07 10:01:58;;;;;;;7.65;1.15;;;;;;;3.41;91.73;101395.38;5052353;28;20048;-59
2021/01/07 10:04:25;;;;;;;7.70;1.05;;;;;;;3.42;91.82;101390.69;5052759;28;20521;-59
2021/01/07 10:06:53;;;;;;;9.20;1.10;;;;;;;3.43;91.52;101386.88;5052741;28;20139;-60
2021/01/07 10:09:20;;;;;;;10.07;1.50;;;;;;;3.38;91.59;101386.75;5052888;28;20045;-56
2021/01/07 10:11:50;;;;;;;5.85;1.30;;;;;;;3.38;91.78;101395.03;5052951;28;20470;-57
2021/01/07 10:14:18;;;;;;;5.72;0.80;;;;;;;3.34;91.72;101397.44;5053096;28;20124;-53
2021/01/07 10:16:49;;;;;;;5.97;0.70;;;;;;;3.32;91.61;101394.06;5052282;28;20143;-50
2021/01/07 10:19:16;;;;;;;6.57;0.80;;;;;;;3.25;91.50;101393.31;5053020;28;20484;-56
2021/01/07 10:21:47;;;;;;;4.10;0.70;;;;;;;3.18;91.47;101394.53;5051808;28;20076;-53
2021/01/07 10:24:16;;;;;;;5.03;0.93;;;;;;;3.10;91.63;101380.00;5053476;28;20495;-54
2021/01/07 10:26:58;;;;;;;3.63;0.80;;;;;;;3.06;91.69;101373.28;5052087;28;20056;-54
2021/01/07 10:29:27;;;;;;;7.35;1.20;;;;;;;3.06;91.88;101373.28;5052538;28;20055;-54
2021/01/07 10:31:55;;;;;;;5.03;1.02;;;;;;;3.12;92.13;101368.75;5052248;28;20144;-57
2021/01/07 10:34:22;;;;;;;11.60;1.23;;;;;;;3.17;92.30;101360.59;5052859;28;20553;-52
2021/01/07 10:36:51;;;;;;;10.20;1.40;;;;;;;3.26;92.47;101363.84;5051529;28;20141;-55
2021/01/07 10:39:22;;;;;;;8.18;1.13;;;;;;;3.34;92.58;101372.59;5052511;28;20063;-57
2021/01/07 10:41:50;;;;;;;8.32;1.20;;;;;;;3.44;92.55;101369.22;5051758;28;20073;-56
2021/01/07 10:44:18;;;;;;;6.72;1.00;;;;;;;3.54;92.62;101365.88;5052796;28;20059;-54
2021/01/07 10:46:45;;;;;;;3.50;0.90;;;;;;;3.60;92.57;101364.91;5051765;28;20041;-55
2021/01/07 10:49:19;;;;;;;10.68;1.25;;;;;;;3.65;92.48;101360.34;5052393;28;20466;-54
2021/01/07 10:52:02;;;;;;;6.50;1.15;;;;;;;3.67;92.30;101355.44;5051752;28;20144;-52
2021/01/07 10:54:47;;;;;;;11.80;1.48;;;;;;;3.69;92.33;101358.78;5052364;28;20061;-53
2021/01/07 10:57:56;;;;;;;6.57;0.85;;;;;;;3.69;92.23;101349.66;5050910;28;20041;-53
2021/01/07 11:00:34;;;;;;;7.45;0.98;;;;;;;3.66;92.24;101348.22;5032365;28;20492;-53
2021/01/07 11:03:16;;;;;;;5.43;0.98;;;;;;;3.70;92.29;101348.59;5048194;28;20052;-56
2021/01/07 11:05:46;;;;;;;6.30;0.90;;;;;;;3.68;92.15;101346.06;5052287;28;20455;-57
2021/01/07 11:08:20;;;;;;;8.50;1.00;;;;;;;3.68;92.16;101337.78;5051326;28;20041;-54
2021/01/07 11:10:52;;;;;;;7.25;1.20;;;;;;;3.71;92.25;101342.00;5051715;28;20176;-56
2021/01/07 11:13:22;;;;;;;9.90;1.13;;;;;;;3.73;92.45;101342.59;5051759;28;20072;-57
2021/01/07 11:15:55;;;;;;;10.60;1.55;;;;;;;3.75;92.31;101334.91;5052069;28;20040;-57
2021/01/07 11:18:27;;;;;;;12.32;1.38;;;;;;;3.81;92.38;101336.69;5051146;28;20125;-58
2021/01/07 11:21:00;;;;;;;9.32;1.40;;;;;;;3.82;92.09;101313.53;5051790;28;20049;-59
2021/01/07 11:23:27;;;;;;;8.77;1.15;;;;;;;3.81;92.41;101322.88;5051368;28;20492;-58
2021/01/07 11:25:55;;;;;;;12.43;1.60;;;;;;;3.84;92.34;101316.88;5051443;28;20425;-57
2021/01/07 11:28:22;;;;;;;9.32;1.15;;;;;;;3.86;92.16;101330.44;5051523;28;20064;-58
2021/01/07 11:30:49;;;;;;;11.05;1.75;;;;;;;3.87;92.29;101326.59;5051438;28;20504;-55
2021/01/07 11:33:17;;;;;;;6.05;1.10;;;;;;;3.87;92.08;101312.78;5049836;28;20047;-58
2021/01/07 11:35:45;;;;;;;11.75;1.92;;;;;;;3.86;92.19;101309.19;5050938;28;20466;-58
2021/01/07 11:38:23;;;;;;;13.40;2.13;;;;;;;3.88;92.26;101304.28;5050366;28;20138;-52
2021/01/07 11:40:58;;;;;;;7.38;1.10;;;;;;;3.86;92.26;101298.16;5050132;28;20103;-52
2021/01/07 11:43:57;;;;;;;9.82;1.42;;;;;;;3.87;92.27;101299.84;5050896;28;20048;-51